createdAt,value
2022-08-17T00:00:12.006Z,10.00
2022-08-17T00:03:35.889Z,9.60
2022-08-17T00:06:12.048Z,10.23
2022-08-17T00:08:50.725Z,12.10
2022-08-17T00:11:35.721Z,9.20
2022-08-17T00:14:11.805Z,11.20
2022-08-17T00:16:56.264Z,12.65
2022-08-17T00:22:33.213Z,10.05
2022-08-17T00:24:47.872Z,9.98
2022-08-17T00:27:15.193Z,10.73
2022-08-17T00:29:42.723Z,8.85
2022-08-17T00:33:12.123Z,7.38
2022-08-17T00:34:57.717Z,7.55
2022-08-17T00:37:25.632Z,8.82
2022-08-17T00:39:53.132Z,7.55
2022-08-17T00:42:20.578Z,10.68
2022-08-17T00:44:47.881Z,9.10
2022-08-17T00:47:15.419Z,9.35
2022-08-17T00:49:42.765Z,7.68
2022-08-17T00:52:22.998Z,8.82
2022-08-17T00:54:54.185Z,7.47
2022-08-17T00:57:36.890Z,8.40
2022-08-17T01:00:29.220Z,7.53
2022-08-17T01:03:10.102Z,7.05
2022-08-17T01:05:42.323Z,7.70
2022-08-17T01:08:15.768Z,7.18
2022-08-17T01:10:59.652Z,7.60
2022-08-17T01:13:41.421Z,6.88
2022-08-17T01:16:30.007Z,9.32
2022-08-17T01:19:13.038Z,7.82
2022-08-17T01:22:09.889Z,7.57
2022-08-17T01:24:57.325Z,9.07
2022-08-17T01:27:26.371Z,9.55
2022-08-17T01:30:05.994Z,8.43
2022-08-17T01:32:53.236Z,6.15
2022-08-17T01:35:20.570Z,7.07
2022-08-17T01:37:47.948Z,10.07
2022-08-17T01:40:23.801Z,6.43
2022-08-17T01:43:00.875Z,7.75
2022-08-17T01:45:33.783Z,7.03
2022-08-17T01:48:01.497Z,9.52
2022-08-17T01:50:43.264Z,8.07
2022-08-17T01:53:37.930Z,7.50
2022-08-17T01:56:17.439Z,6.82
2022-08-17T01:58:45.641Z,7.88
2022-08-17T02:01:23.801Z,6.55
2022-08-17T02:03:59.376Z,8.50
2022-08-17T02:06:44.986Z,7.25
2022-08-17T02:09:25.326Z,7.25
2022-08-17T02:11:56.315Z,7.65
2022-08-17T02:14:25.767Z,6.45
2022-08-17T02:16:54.351Z,11.43
2022-08-17T02:19:22.307Z,6.53
2022-08-17T02:21:54.266Z,6.70
2022-08-17T02:25:01.293Z,8.27
2022-08-17T02:27:17.141Z,7.22
2022-08-17T02:29:44.745Z,7.63
2022-08-17T02:32:27.898Z,7.00
2022-08-17T02:34:58.056Z,8.57
2022-08-17T02:37:28.065Z,9.07
2022-08-17T02:39:57.238Z,8.75
2022-08-17T02:42:38.203Z,7.70
2022-08-17T02:45:17.371Z,7.32
2022-08-17T02:47:46.584Z,9.00
2022-08-17T02:50:18.336Z,7.30
2022-08-17T02:52:47.481Z,7.30
2022-08-17T02:55:38.278Z,7.28
2022-08-17T02:58:07.007Z,5.88
2022-08-17T03:00:41.506Z,5.88
2022-08-17T03:03:13.476Z,7.50
2022-08-17T03:05:41.805Z,6.05
2022-08-17T03:08:13.214Z,7.15
2022-08-17T03:10:41.986Z,6.88
2022-08-17T03:13:09.888Z,9.38
2022-08-17T03:15:40.629Z,9.63
2022-08-17T03:18:09.036Z,11.57
2022-08-17T03:20:39.629Z,7.47
2022-08-17T03:23:08.348Z,11.52
2022-08-17T03:25:44.018Z,7.65
2022-08-17T03:28:12.296Z,12.35
2022-08-17T03:30:40.669Z,9.90
2022-08-17T03:33:10.209Z,10.60
2022-08-17T03:35:40.352Z,7.40
2022-08-17T03:38:14.994Z,11.20
2022-08-17T03:43:32.018Z,9.05
2022-08-17T03:46:28.837Z,6.63
2022-08-17T03:49:26.944Z,9.55
2022-08-17T03:52:15.381Z,8.13
2022-08-17T03:55:03.954Z,7.65
2022-08-17T03:57:32.590Z,8.63
2022-08-17T04:00:00.134Z,10.07
2022-08-17T04:02:34.030Z,8.13
2022-08-17T04:05:01.804Z,10.68
2022-08-17T04:07:31.521Z,12.02
2022-08-17T04:09:59.534Z,11.45
2022-08-17T04:12:31.861Z,8.27
2022-08-17T04:14:59.576Z,12.60
2022-08-17T04:17:29.434Z,11.43
2022-08-17T04:19:57.174Z,11.90
2022-08-17T04:22:30.600Z,10.77
2022-08-17T04:25:18.034Z,10.60
2022-08-17T04:27:45.323Z,9.23
2022-08-17T04:30:13.396Z,9.35
2022-08-17T04:33:07.297Z,10.85
2022-08-17T04:35:50.491Z,11.43
2022-08-17T04:38:24.404Z,8.57
2022-08-17T04:41:11.883Z,10.45
2022-08-17T04:43:42.121Z,8.30
2022-08-17T04:46:20.665Z,9.43
2022-08-17T04:48:57.441Z,8.07
2022-08-17T04:51:40.095Z,10.27
2022-08-17T04:54:21.929Z,8.57
2022-08-17T04:56:49.310Z,9.50
2022-08-17T04:59:21.535Z,10.48
2022-08-17T05:01:52.013Z,11.82
2022-08-17T05:04:34.325Z,9.82
2022-08-17T05:07:04.518Z,7.25
2022-08-17T05:09:32.220Z,7.93
2022-08-17T05:12:03.535Z,7.40
2022-08-17T05:14:32.440Z,8.57
2022-08-17T05:17:01.682Z,11.38
2022-08-17T05:19:34.369Z,8.82
2022-08-17T05:22:06.126Z,6.97
2022-08-17T05:24:38.287Z,10.30
2022-08-17T05:27:06.879Z,7.53
2022-08-17T05:29:35.583Z,8.25
2022-08-17T05:32:38.769Z,8.52
2022-08-17T05:35:01.796Z,8.95
2022-08-17T05:37:29.223Z,10.75
2022-08-17T05:39:57.010Z,8.90
2022-08-17T05:42:24.640Z,15.00
2022-08-17T05:44:52.277Z,8.18
2022-08-17T05:47:23.120Z,7.15
2022-08-17T05:49:50.683Z,10.38
2022-08-17T05:53:01.946Z,7.82
2022-08-17T05:56:29.226Z,10.85
2022-08-17T05:59:35.613Z,11.23
2022-08-17T06:03:07.001Z,8.93
2022-08-17T06:06:21.326Z,9.30
2022-08-17T06:09:33.811Z,11.15
2022-08-17T06:12:50.922Z,11.07
2022-08-17T06:18:05.969Z,15.18
2022-08-17T06:20:53.918Z,12.40
2022-08-17T06:24:07.426Z,15.90
2022-08-17T06:26:43.197Z,13.27
2022-08-17T06:29:56.728Z,13.00
2022-08-17T06:32:25.383Z,11.57
2022-08-17T06:34:53.752Z,11.18
2022-08-17T06:37:48.763Z,8.82
2022-08-17T06:40:49.459Z,10.80
2022-08-17T06:43:46.139Z,8.98
2022-08-17T06:46:48.513Z,9.45
2022-08-17T06:49:49.510Z,9.52
2022-08-17T06:52:46.879Z,15.60
2022-08-17T06:55:46.579Z,14.63
2022-08-17T06:58:21.173Z,14.70
2022-08-17T07:00:58.499Z,12.70
2022-08-17T07:03:54.301Z,12.00
2022-08-17T07:06:37.799Z,16.67
2022-08-17T07:09:34.302Z,11.50
2022-08-17T07:12:23.120Z,10.07
2022-08-17T07:15:17.647Z,12.65
2022-08-17T07:17:48.384Z,9.32
2022-08-17T07:20:22.408Z,25.48
2022-08-17T07:23:04.637Z,13.45
2022-08-17T07:25:32.675Z,13.48
2022-08-17T07:28:06.999Z,8.93
2022-08-17T07:30:48.894Z,9.32
2022-08-17T07:33:30.160Z,8.88
2022-08-17T07:35:59.330Z,8.57
2022-08-17T07:38:35.522Z,14.77
2022-08-17T07:41:08.797Z,26.60
2022-08-17T07:43:40.848Z,12.27
2022-08-17T07:46:46.119Z,11.80
2022-08-17T07:49:13.288Z,30.55
2022-08-17T07:52:51.071Z,14.60
2022-08-17T07:55:35.395Z,15.38
2022-08-17T07:58:03.530Z,14.25
2022-08-17T08:00:33.059Z,15.68
2022-08-17T08:03:23.699Z,12.82
2022-08-17T08:06:02.087Z,13.98
2022-08-17T08:08:43.094Z,15.18
2022-08-17T08:11:17.910Z,15.43
2022-08-17T08:13:49.886Z,13.88
2022-08-17T08:16:29.701Z,17.70
2022-08-17T08:19:01.508Z,14.50
2022-08-17T08:21:48.170Z,16.92
2022-08-17T08:24:43.664Z,16.98
2022-08-17T08:27:41.909Z,16.13
2022-08-17T08:30:15.090Z,17.17
2022-08-17T08:33:29.426Z,15.73
2022-08-17T08:37:14.168Z,18.38
2022-08-17T08:40:11.460Z,15.50
2022-08-17T08:43:36.351Z,14.43
2022-08-17T08:46:35.535Z,14.27
2022-08-17T08:50:03.305Z,13.32
2022-08-17T08:53:12.356Z,17.88
2022-08-17T08:55:53.471Z,14.80
2022-08-17T08:58:41.745Z,16.38
2022-08-17T09:01:39.412Z,14.60
2022-08-17T09:05:09.965Z,17.08
2022-08-17T09:07:44.934Z,14.05
2022-08-17T09:10:30.147Z,17.13
2022-08-17T09:15:48.801Z,16.08
2022-08-17T09:19:01.700Z,13.90
2022-08-17T09:21:48.753Z,16.42
2022-08-17T09:24:41.678Z,14.40
2022-08-17T09:27:50.945Z,17.90
2022-08-17T09:30:21.089Z,13.95
2022-08-17T09:33:02.256Z,15.60
2022-08-17T09:35:39.856Z,15.05
2022-08-17T09:38:41.705Z,18.00
2022-08-17T09:41:24.121Z,14.73
2022-08-17T09:44:23.333Z,11.30
2022-08-17T09:47:16.968Z,19.20
2022-08-17T09:50:01.760Z,16.30
2022-08-17T09:52:31.574Z,14.00
2022-08-17T09:55:01.740Z,10.60
2022-08-17T09:57:53.718Z,14.13
2022-08-17T10:00:29.182Z,12.85
2022-08-17T10:04:10.875Z,16.00
2022-08-17T10:07:24.693Z,13.05
2022-08-17T10:10:41.854Z,15.57
2022-08-17T10:13:59.536Z,13.23
2022-08-17T10:16:42.826Z,11.85
2022-08-17T10:19:30.711Z,13.40
2022-08-17T10:22:35.022Z,15.05
2022-08-17T10:25:48.569Z,12.25
2022-08-17T10:28:29.512Z,12.55
2022-08-17T10:31:33.019Z,11.15
2022-08-17T10:34:08.504Z,12.32
2022-08-17T10:39:57.543Z,12.70
2022-08-17T10:43:04.809Z,13.40
2022-08-17T10:46:42.317Z,13.85
2022-08-17T10:49:18.709Z,11.88
2022-08-17T10:51:53.449Z,11.60
2022-08-17T10:55:05.934Z,15.07
2022-08-17T10:57:43.650Z,14.52
2022-08-17T11:00:18.624Z,18.10
2022-08-17T11:05:44.187Z,14.20
2022-08-17T11:08:32.419Z,14.43
2022-08-17T11:11:20.107Z,13.80
2022-08-17T11:14:09.991Z,13.77
2022-08-17T11:17:15.103Z,13.95
2022-08-17T11:20:06.497Z,10.07
2022-08-17T11:23:28.530Z,14.65
2022-08-17T11:26:08.198Z,13.35
2022-08-17T11:28:52.782Z,12.45
2022-08-17T11:31:39.865Z,11.05
2022-08-17T11:34:30.203Z,11.80
2022-08-17T11:37:33.270Z,11.10
2022-08-17T11:40:26.273Z,11.30
2022-08-17T11:43:21.101Z,11.85
2022-08-17T11:46:20.278Z,10.13
2022-08-17T11:49:22.181Z,15.20
2022-08-17T11:52:01.650Z,8.90
2022-08-17T11:54:41.060Z,8.93
2022-08-17T11:57:26.610Z,7.20
2022-08-17T12:00:38.813Z,9.18
2022-08-17T12:03:31.738Z,12.63
2022-08-17T12:06:17.000Z,12.07
2022-08-17T12:12:13.431Z,12.05
2022-08-17T12:15:11.035Z,12.85
2022-08-17T12:17:42.608Z,15.73
2022-08-17T12:20:24.757Z,14.52
2022-08-17T12:23:16.210Z,9.00
2022-08-17T12:26:01.060Z,17.95
2022-08-17T12:28:37.212Z,10.55
2022-08-17T12:31:25.015Z,14.50
2022-08-17T12:33:53.013Z,17.20
2022-08-17T12:36:25.915Z,11.23
2022-08-17T12:39:12.783Z,15.27
2022-08-17T12:41:50.981Z,14.48
2022-08-17T12:44:24.162Z,11.02
2022-08-17T12:47:20.960Z,11.55
2022-08-17T12:49:55.389Z,13.98
2022-08-17T12:52:32.919Z,13.07
2022-08-17T12:55:21.067Z,13.55
2022-08-17T12:57:55.673Z,10.32
2022-08-17T13:00:41.175Z,12.82
2022-08-17T13:03:35.718Z,12.65
2022-08-17T13:06:14.896Z,10.02
2022-08-17T13:08:48.014Z,15.77
2022-08-17T13:11:16.444Z,12.63
2022-08-17T13:13:50.793Z,12.55
2022-08-17T13:16:22.866Z,14.73
2022-08-17T13:18:58.311Z,13.15
2022-08-17T13:21:30.487Z,13.23
2022-08-17T13:24:22.305Z,12.93
2022-08-17T13:26:59.152Z,14.07
2022-08-17T13:29:51.192Z,9.05
2022-08-17T13:32:37.992Z,17.35
2022-08-17T13:35:40.978Z,14.25
2022-08-17T13:38:14.746Z,18.65
2022-08-17T13:40:53.077Z,14.90
2022-08-17T13:43:46.325Z,13.95
2022-08-17T13:46:28.677Z,13.55
2022-08-17T13:49:11.649Z,17.25
2022-08-17T13:51:46.336Z,12.02
2022-08-17T13:54:34.777Z,15.48
2022-08-17T13:57:18.512Z,16.98
2022-08-17T13:59:55.214Z,13.40
2022-08-17T14:02:27.227Z,10.25
2022-08-17T14:04:58.405Z,10.77
2022-08-17T14:07:36.976Z,14.20
2022-08-17T14:10:18.251Z,14.65
2022-08-17T14:12:46.551Z,17.23
2022-08-17T14:15:24.875Z,14.18
2022-08-17T14:18:12.221Z,15.00
2022-08-17T14:20:40.023Z,11.80
2022-08-17T14:23:08.321Z,15.60
2022-08-17T14:25:35.964Z,12.18
2022-08-17T14:28:07.012Z,12.25
2022-08-17T14:30:35.673Z,14.32
2022-08-17T14:33:03.130Z,11.25
2022-08-17T14:35:30.510Z,16.58
2022-08-17T14:37:58.381Z,14.60
2022-08-17T14:40:26.251Z,13.90
2022-08-17T14:42:57.796Z,10.68
2022-08-17T14:45:29.572Z,15.55
2022-08-17T14:48:08.315Z,17.33
2022-08-17T14:50:40.894Z,14.43
2022-08-17T14:53:12.452Z,15.52
2022-08-17T14:55:40.746Z,15.88
2022-08-17T14:58:09.064Z,13.90
2022-08-17T15:00:38.487Z,11.48
2022-08-17T15:03:06.241Z,15.05
2022-08-17T15:05:38.128Z,15.55
2022-08-17T15:08:07.014Z,20.63
2022-08-17T15:10:35.670Z,14.80
2022-08-17T15:13:03.382Z,14.25
2022-08-17T15:15:31.132Z,11.75
2022-08-17T15:17:59.882Z,18.20
2022-08-17T15:20:30.217Z,14.13
2022-08-17T15:22:59.059Z,18.08
2022-08-17T15:25:31.606Z,22.08
2022-08-17T15:27:59.984Z,20.60
2022-08-17T15:30:28.402Z,23.80
2022-08-17T15:32:58.976Z,22.05
2022-08-17T15:35:32.784Z,27.80
2022-08-17T15:38:11.292Z,25.90
2022-08-17T15:40:48.359Z,25.10
2022-08-17T15:43:32.586Z,22.98
2022-08-17T15:46:15.171Z,26.55
2022-08-17T15:48:51.539Z,27.77
2022-08-17T15:51:34.966Z,25.90
2022-08-17T15:54:22.222Z,32.90
2022-08-17T15:56:50.577Z,32.70
2022-08-17T15:59:18.413Z,34.20
2022-08-17T16:03:14.083Z,32.25
2022-08-17T16:04:33.112Z,28.20
2022-08-17T16:07:00.842Z,22.98
2022-08-17T16:09:28.358Z,21.00
2022-08-17T16:11:56.304Z,21.20
2022-08-17T16:14:32.453Z,20.73
2022-08-17T16:17:02.671Z,21.67
2022-08-17T16:19:30.495Z,29.20
2022-08-17T16:21:58.010Z,31.70
2022-08-17T16:24:25.845Z,31.38
2022-08-17T16:26:53.419Z,35.88
2022-08-17T16:29:21.570Z,32.45
2022-08-17T16:31:49.726Z,32.17
2022-08-17T16:34:18.896Z,37.80
2022-08-17T16:36:54.648Z,37.47
2022-08-17T16:39:26.893Z,38.25
2022-08-17T16:41:56.023Z,41.58
2022-08-17T16:44:25.656Z,37.42
2022-08-17T16:46:53.465Z,39.00
2022-08-17T16:49:35.821Z,36.85
2022-08-17T16:52:09.886Z,34.22
2022-08-17T16:54:44.246Z,38.10
2022-08-17T16:57:15.601Z,39.50
2022-08-17T16:59:47.939Z,37.10
2022-08-17T17:02:27.558Z,35.50
2022-08-17T17:05:40.194Z,31.25
2022-08-17T17:08:28.375Z,34.85
2022-08-17T17:11:09.098Z,25.35
2022-08-17T17:13:54.916Z,33.17
2022-08-17T17:16:52.941Z,30.63
2022-08-17T17:19:38.001Z,29.58
2022-08-17T17:22:35.944Z,33.13
2022-08-17T17:25:39.604Z,37.35
2022-08-17T17:28:24.703Z,34.45
2022-08-17T17:31:14.741Z,44.58
2022-08-17T17:34:00.508Z,36.38
2022-08-17T17:36:48.405Z,38.42
2022-08-17T17:39:36.584Z,37.58
2022-08-17T17:42:11.227Z,35.07
2022-08-17T17:44:53.583Z,38.30
2022-08-17T17:47:21.578Z,33.47
2022-08-17T17:49:49.477Z,35.90
2022-08-17T17:53:07.548Z,39.53
2022-08-17T17:55:59.890Z,35.67
2022-08-17T17:59:03.977Z,33.72
2022-08-17T18:01:51.374Z,32.00
2022-08-17T18:04:30.513Z,36.13
2022-08-17T18:07:30.163Z,28.40
2022-08-17T18:10:30.201Z,32.58
2022-08-17T18:13:50.081Z,30.20
2022-08-17T18:16:20.535Z,30.10
2022-08-17T18:18:50.548Z,30.30
2022-08-17T18:21:27.575Z,30.45
2022-08-17T18:24:02.169Z,30.95
2022-08-17T18:26:53.352Z,25.88
2022-08-17T18:29:34.385Z,33.78
2022-08-17T18:32:29.003Z,26.63
2022-08-17T18:35:11.281Z,30.42
2022-08-17T18:37:44.875Z,35.28
2022-08-17T18:40:18.441Z,33.53
2022-08-17T18:43:08.407Z,27.75
2022-08-17T18:45:53.680Z,30.42
2022-08-17T18:48:54.191Z,30.80
2022-08-17T18:52:23.237Z,35.38
2022-08-17T18:55:15.396Z,30.05
2022-08-17T18:57:54.959Z,31.27
2022-08-17T19:00:42.940Z,38.67
2022-08-17T19:03:16.361Z,31.67
2022-08-17T19:05:55.713Z,30.15
2022-08-17T19:08:28.905Z,29.55
2022-08-17T19:11:27.934Z,32.25
2022-08-17T19:14:08.531Z,31.73
2022-08-17T19:17:06.224Z,30.05
2022-08-17T19:20:31.177Z,30.63
2022-08-17T19:23:30.280Z,32.58
2022-08-17T19:26:01.649Z,37.30
2022-08-17T19:28:56.593Z,30.90
2022-08-17T19:31:31.142Z,31.27
2022-08-17T19:34:01.524Z,34.77
2022-08-17T19:36:49.814Z,33.38
2022-08-17T19:40:03.543Z,29.42
2022-08-17T19:43:21.821Z,35.72
2022-08-17T19:46:35.643Z,38.42
2022-08-17T19:49:46.329Z,36.67
2022-08-17T19:53:33.221Z,39.85
2022-08-17T19:56:45.968Z,34.10
2022-08-17T19:59:48.613Z,34.95
2022-08-17T20:03:29.202Z,35.92
2022-08-17T20:06:12.533Z,35.03
2022-08-17T20:09:20.451Z,37.97
2022-08-17T20:12:04.008Z,39.33
2022-08-17T20:14:55.661Z,38.58
2022-08-17T20:17:32.250Z,33.40
2022-08-17T20:20:19.549Z,37.70
2022-08-17T20:23:18.313Z,35.50
2022-08-17T20:26:19.272Z,36.08
2022-08-17T20:29:37.251Z,34.47
2022-08-17T20:32:24.016Z,34.22
2022-08-17T20:35:31.967Z,29.08
2022-08-17T20:38:12.157Z,35.55
2022-08-17T20:40:54.676Z,31.48
2022-08-17T20:43:33.150Z,32.85
2022-08-17T20:46:40.490Z,36.15
2022-08-17T20:49:44.433Z,34.60
2022-08-17T20:52:36.473Z,30.20
2022-08-17T20:55:05.445Z,32.03
2022-08-17T20:57:32.605Z,29.25
2022-08-17T21:00:15.489Z,36.00
2022-08-17T21:02:50.577Z,34.72
2022-08-17T21:06:09.402Z,34.13
2022-08-17T21:09:19.062Z,33.17
2022-08-17T21:12:04.410Z,37.95
2022-08-17T21:15:04.053Z,30.02
2022-08-17T21:18:09.778Z,29.77
2022-08-17T21:21:19.905Z,29.30
2022-08-17T21:24:11.905Z,33.28
2022-08-17T21:27:02.480Z,36.28
2022-08-17T21:29:34.206Z,33.22
2022-08-17T21:32:09.021Z,30.05
2022-08-17T21:34:43.601Z,31.35
2022-08-17T21:37:45.298Z,33.33
2022-08-17T21:40:18.646Z,29.88
2022-08-17T21:43:00.774Z,34.28
2022-08-17T21:45:36.151Z,35.10
2022-08-17T21:51:10.918Z,31.80
2022-08-17T21:54:02.742Z,30.58
2022-08-17T21:56:39.108Z,32.97
2022-08-17T21:59:27.309Z,37.08
2022-08-17T22:02:19.535Z,30.48
2022-08-17T22:05:10.999Z,28.60
2022-08-17T22:07:48.525Z,30.45
2022-08-17T22:10:44.518Z,35.97
2022-08-17T22:13:36.305Z,35.17
2022-08-17T22:16:29.261Z,38.35
2022-08-17T22:18:59.180Z,40.50
2022-08-17T22:21:27.247Z,40.40
2022-08-17T22:24:21.587Z,46.38
2022-08-17T22:27:11.414Z,46.95
2022-08-17T22:29:58.417Z,50.88
2022-08-17T22:32:45.502Z,51.45
2022-08-17T22:35:43.195Z,53.50
2022-08-17T22:38:19.350Z,59.47
2022-08-17T22:40:56.695Z,67.20
2022-08-17T22:43:28.558Z,72.35
2022-08-17T22:46:00.335Z,73.80
2022-08-17T22:48:30.317Z,72.10
2022-08-17T22:51:14.819Z,72.00
2022-08-17T22:54:33.334Z,81.53
2022-08-17T22:57:23.553Z,75.07
2022-08-17T22:59:55.109Z,68.10
2022-08-17T23:02:27.356Z,74.70
2022-08-17T23:05:16.482Z,77.93
2022-08-17T23:07:46.570Z,77.03
2022-08-17T23:10:14.863Z,73.78
2022-08-17T23:12:42.734Z,73.55
2022-08-17T23:15:17.657Z,71.72
2022-08-17T23:17:46.145Z,78.03
2022-08-17T23:20:17.980Z,75.35
2022-08-17T23:22:52.049Z,76.35
2022-08-17T23:25:31.668Z,74.32
2022-08-17T23:28:03.361Z,72.15
2022-08-17T23:30:41.414Z,67.80
2022-08-17T23:33:26.567Z,72.63
2022-08-17T23:35:54.099Z,69.30
2022-08-17T23:38:22.295Z,64.45
2022-08-17T23:40:49.617Z,59.03
2022-08-17T23:43:25.325Z,67.38
2022-08-17T23:45:58.462Z,59.60
2022-08-17T23:48:36.290Z,68.90
2022-08-17T23:51:15.329Z,51.85
2022-08-17T23:53:50.335Z,49.13
2022-08-17T23:56:23.833Z,54.17
2022-08-17T23:58:52.011Z,53.67
